Time;durP1;ratioP1;P1;durP2;ratioP2;P2;SDS_P1;SDS_P2;PMS_P1;PMS_P2;Temp;Humidity;BMP_temperature;BMP_pressure;BME280_temperature;BME280_humidity;BME280_pressure;Samples;Min_cycle;Max_cycle;Signal;HPM_P1;HPM_P2
2021/10/09 00:02:01;;;;;;;34.10;22.57;;;;;;;11.92;75.35;101324.44;4842863;29;20414;-75
2021/10/09 00:04:26;;;;;;;32.73;21.60;;;;;;;11.90;74.95;101329.28;4858680;29;20437;-75
2021/10/09 00:06:51;;;;;;;30.40;21.77;;;;;;;11.86;75.42;101324.53;4842792;29;20406;-75
2021/10/09 00:09:17;;;;;;;35.13;22.17;;;;;;;11.83;75.42;101331.28;4860906;29;20414;-75
2021/10/09 00:11:42;;;;;;;31.23;22.25;;;;;;;11.83;75.61;101331.28;4858976;29;20414;-75
2021/10/09 00:14:10;;;;;;;28.83;21.50;;;;;;;11.82;75.59;101336.97;4859294;29;20418;-75
2021/10/09 00:16:37;;;;;;;26.98;21.80;;;;;;;11.78;75.70;101327.59;4859216;29;20421;-74
2021/10/09 00:19:03;;;;;;;31.27;22.52;;;;;;;11.77;75.82;101325.94;4858651;29;20414;-75
2021/10/09 00:21:29;;;;;;;32.10;22.38;;;;;;;11.76;75.76;101333.25;4859183;29;20402;-75
2021/10/09 00:23:54;;;;;;;32.13;22.20;;;;;;;11.77;75.60;101343.06;4858841;29;20766;-75
2021/10/09 00:26:20;;;;;;;32.43;22.63;;;;;;;11.80;75.65;101333.63;4858603;29;20414;-75
2021/10/09 00:28:46;;;;;;;29.85;22.13;;;;;;;11.79;75.50;101334.69;4858164;29;20403;-75
2021/10/09 00:31:11;;;;;;;33.55;21.83;;;;;;;11.79;75.63;101329.25;4858654;29;20422;-75
2021/10/09 00:33:37;;;;;;;28.23;21.45;;;;;;;11.77;75.65;101334.09;4858923;29;20417;-75
2021/10/09 00:36:02;;;;;;;28.37;21.60;;;;;;;11.74;75.72;101329.97;4842571;29;20506;-75
2021/10/09 00:38:27;;;;;;;28.10;20.77;;;;;;;11.73;75.82;101330.19;4858317;29;20418;-75
2021/10/09 00:40:52;;;;;;;27.63;21.17;;;;;;;11.71;75.78;101332.31;4858996;29;20498;-75
2021/10/09 00:43:18;;;;;;;30.63;21.57;;;;;;;11.72;75.87;101333.97;4858699;29;20778;-75
2021/10/09 00:45:56;;;;;;;30.37;21.87;;;;;;;11.69;75.71;101326.25;4842535;29;20479;-75
2021/10/09 00:48:22;;;;;;;30.52;21.83;;;;;;;11.67;76.04;101331.06;4858368;29;20406;-75
2021/10/09 00:50:48;;;;;;;31.52;21.27;;;;;;;11.63;75.85;101327.16;4857434;29;20434;-76
2021/10/09 00:53:14;;;;;;;30.10;21.87;;;;;;;11.57;76.26;101334.34;4859027;29;20736;-75
2021/10/09 00:55:40;;;;;;;30.17;22.53;;;;;;;11.58;76.22;101333.28;4842060;29;20429;-75
2021/10/09 00:58:06;;;;;;;28.67;21.60;;;;;;;11.55;76.16;101324.78;4858961;29;20413;-75
2021/10/09 01:00:32;;;;;;;30.17;21.77;;;;;;;11.52;76.17;101334.22;4841443;29;20501;-75
2021/10/09 01:02:57;;;;;;;30.50;21.77;;;;;;;11.54;76.06;101333.97;4858791;29;20497;-75
2021/10/09 01:05:23;;;;;;;30.73;22.05;;;;;;;11.49;76.08;101334.69;4841987;29;20516;-75
2021/10/09 01:07:49;;;;;;;30.10;21.60;;;;;;;11.48;76.11;101324.88;4862116;29;20921;-75
2021/10/09 01:10:14;;;;;;;29.75;22.02;;;;;;;11.48;76.04;101332.19;4868749;29;20418;-75
2021/10/09 01:12:39;;;;;;;33.73;22.87;;;;;;;11.42;76.08;101325.78;4862421;29;20711;-75
2021/10/09 01:15:15;;;;;;;31.80;22.58;;;;;;;11.43;76.17;101324.72;4862239;29;20759;-75
2021/10/09 01:17:41;;;;;;;29.30;21.83;;;;;;;11.42;76.09;101326.63;4845637;29;20414;-75
2021/10/09 01:20:11;;;;;;;31.73;22.70;;;;;;;11.44;76.09;101326.38;4861808;29;20413;-75
2021/10/09 01:22:36;;;;;;;32.38;21.77;;;;;;;11.45;75.96;101333.47;4862119;29;20740;-75
2021/10/09 01:25:02;;;;;;;30.10;21.13;;;;;;;11.43;75.98;101328.25;4861032;29;20429;-75
2021/10/09 01:27:28;;;;;;;34.78;22.42;;;;;;;11.40;75.80;101323.28;4862157;29;20451;-75
2021/10/09 01:29:53;;;;;;;31.57;21.43;;;;;;;11.39;76.13;101324.34;4859132;29;20477;-74
2021/10/09 01:32:18;;;;;;;32.73;23.37;;;;;;;11.37;76.13;101320.22;4860649;29;20474;-75
2021/10/09 01:34:44;;;;;;;29.53;21.63;;;;;;;11.35;76.24;101323.16;4861318;29;20882;-75
2021/10/09 01:37:09;;;;;;;31.27;22.33;;;;;;;11.35;76.15;101323.16;4844669;29;20418;-75
2021/10/09 01:39:41;;;;;;;35.60;23.53;;;;;;;11.33;76.09;101322.56;4861805;29;20417;-75
2021/10/09 01:42:06;;;;;;;30.02;21.85;;;;;;;11.32;76.03;101314.66;4861933;29;20409;-75
2021/10/09 01:44:31;;;;;;;39.60;23.35;;;;;;;11.32;76.04;101310.06;4860129;29;20921;-75
2021/10/09 01:46:56;;;;;;;29.20;22.37;;;;;;;11.28;75.99;101317.00;4860551;29;20434;-75
2021/10/09 01:49:22;;;;;;;27.93;21.03;;;;;;;11.27;75.86;101307.19;4859398;29;20425;-75
2021/10/09 01:51:47;;;;;;;31.07;22.60;;;;;;;11.25;75.93;101316.63;4860471;29;20837;-75
2021/10/09 01:54:12;;;;;;;33.47;22.60;;;;;;;11.21;76.10;101312.69;4860539;29;20422;-75
2021/10/09 01:56:39;;;;;;;33.23;22.33;;;;;;;11.21;76.17;101312.69;4843991;29;20501;-75
2021/10/09 01:59:04;;;;;;;30.05;22.20;;;;;;;11.20;76.42;101308.31;4859818;29;20509;-75
2021/10/09 02:01:30;;;;;;;35.97;22.77;;;;;;;11.19;76.22;101310.22;4860432;29;20493;-75
2021/10/09 02:03:55;;;;;;;30.75;21.65;;;;;;;11.19;76.28;101303.97;4843649;29;20520;-75
2021/10/09 02:06:21;;;;;;;33.37;22.53;;;;;;;11.19;75.99;101299.38;4860280;29;20417;-75
2021/10/09 02:08:46;;;;;;;32.27;21.83;;;;;;;11.17;75.81;101303.34;4842589;29;20414;-75
2021/10/09 02:11:17;;;;;;;30.33;22.23;;;;;;;11.14;75.90;101295.69;4859829;29;20886;-75
2021/10/09 02:16:21;;;;;;;30.67;22.70;;;;;;;11.07;76.22;101294.94;4859840;29;20478;-75
2021/10/09 02:24:27;;;;;;;35.03;23.98;;;;;;;11.04;76.31;101301.63;4859927;29;20541;-75
2021/10/09 02:26:53;;;;;;;32.92;23.35;;;;;;;11.04;76.16;101304.34;4859376;29;20426;-76
2021/10/09 02:29:18;;;;;;;33.60;22.75;;;;;;;11.02;76.27;101301.06;4858502;29;20417;-75
2021/10/09 02:31:44;;;;;;;30.45;22.58;;;;;;;10.99;76.20;101304.22;4859804;29;20957;-75
2021/10/09 02:34:10;;;;;;;31.55;22.33;;;;;;;10.97;76.37;101305.47;4859964;29;20445;-75
2021/10/09 02:36:35;;;;;;;31.87;22.47;;;;;;;10.99;76.54;101306.94;4843213;29;20459;-75
2021/10/09 02:39:01;;;;;;;33.23;23.20;;;;;;;10.96;76.17;101304.69;4859393;29;20453;-75
2021/10/09 02:41:26;;;;;;;30.50;22.37;;;;;;;10.88;76.48;101300.38;4859833;29;20774;-75
2021/10/09 02:43:51;;;;;;;30.63;23.17;;;;;;;10.88;76.33;101299.53;4800169;29;1754569;-74
2021/10/09 02:46:17;;;;;;;31.23;21.13;;;;;;;10.92;76.41;101300.75;4860568;29;20403;-75
2021/10/09 02:48:42;;;;;;;36.92;23.55;;;;;;;10.97;76.25;101308.19;4859731;29;20414;-75
2021/10/09 02:51:08;;;;;;;31.37;22.27;;;;;;;10.91;76.24;101301.81;4863677;29;20425;-75
2021/10/09 02:53:33;;;;;;;32.37;21.77;;;;;;;10.87;75.93;101303.31;4860360;29;20489;-75
2021/10/09 02:55:58;;;;;;;30.93;21.90;;;;;;;10.87;76.10;101300.59;4843761;29;20419;-74
2021/10/09 02:58:24;;;;;;;33.27;21.53;;;;;;;10.87;76.27;101301.41;4860398;29;20538;-75
2021/10/09 03:00:50;;;;;;;34.78;22.88;;;;;;;10.87;76.26;101297.88;4843405;29;20748;-75
2021/10/09 03:03:15;;;;;;;29.33;22.33;;;;;;;10.89;76.19;101306.63;4843835;29;20497;-75
2021/10/09 03:05:40;;;;;;;33.37;22.37;;;;;;;10.85;76.13;101295.41;4860151;29;20418;-75
2021/10/09 03:08:05;;;;;;;32.80;22.33;;;;;;;10.85;76.26;101298.13;4842933;29;20422;-75
2021/10/09 03:10:32;;;;;;;30.17;21.07;;;;;;;10.84;76.03;101299.16;4858903;29;20422;-75
2021/10/09 03:12:57;;;;;;;29.67;22.38;;;;;;;10.84;76.13;101295.63;4843633;29;20417;-75
2021/10/09 03:15:23;;;;;;;31.50;22.52;;;;;;;10.83;76.13;101296.69;4859886;29;20774;-74
2021/10/09 03:17:48;;;;;;;29.53;21.67;;;;;;;10.83;76.04;101291.28;4860332;29;20409;-75
2021/10/09 03:20:13;;;;;;;28.02;21.75;;;;;;;10.83;76.21;101296.69;4859245;29;20418;-75
2021/10/09 03:22:39;;;;;;;30.60;21.80;;;;;;;10.80;76.32;101300.66;4859964;29;20851;-74
2021/10/09 03:25:06;;;;;;;34.57;22.17;;;;;;;10.76;76.16;101302.19;4843441;29;20438;-74
2021/10/09 03:27:31;;;;;;;31.60;22.90;;;;;;;10.77;75.78;101292.16;4859228;29;20410;-75
2021/10/09 03:29:58;;;;;;;30.17;21.10;;;;;;;10.78;76.02;101294.66;4859027;29;20430;-75
2021/10/09 03:32:23;;;;;;;31.73;21.60;;;;;;;10.77;75.85;101295.69;4859655;29;20437;-75
2021/10/09 03:34:48;;;;;;;30.33;21.63;;;;;;;10.75;76.06;101297.81;4843384;29;20886;-74
2021/10/09 03:37:13;;;;;;;30.37;21.17;;;;;;;10.68;76.34;101296.22;4859919;29;20407;-75
2021/10/09 03:39:42;;;;;;;33.03;22.17;;;;;;;10.64;76.30;101303.97;4842171;29;20410;-75
2021/10/09 03:42:12;;;;;;;27.35;21.52;;;;;;;10.66;76.37;101303.75;4843051;29;20402;-75
2021/10/09 03:44:46;;;;;;;36.00;22.63;;;;;;;10.68;76.21;101307.06;4842040;29;20442;-74
2021/10/09 03:47:32;;;;;;;30.10;21.17;;;;;;;10.68;76.24;101309.78;4859758;29;20418;-75
2021/10/09 03:50:19;;;;;;;30.42;21.38;;;;;;;10.69;76.26;101311.44;4838417;29;20421;-75
2021/10/09 03:52:44;;;;;;;31.17;21.70;;;;;;;10.68;75.83;101316.03;4834680;29;20922;-75
2021/10/09 03:55:15;;;;;;;30.77;21.83;;;;;;;10.66;76.24;101306.47;4859505;29;20406;-75
2021/10/09 03:57:41;;;;;;;32.83;22.17;;;;;;;10.65;75.80;101310.22;4859577;29;20945;-75
2021/10/09 04:00:09;;;;;;;34.10;22.42;;;;;;;10.62;76.17;101314.22;4859350;29;20640;-75
2021/10/09 04:02:34;;;;;;;30.17;21.67;;;;;;;10.61;76.33;101312.56;4859382;29;20425;-75
2021/10/09 04:05:00;;;;;;;28.03;21.60;;;;;;;10.63;76.03;101317.78;4859118;29;20432;-74
2021/10/09 04:07:25;;;;;;;34.05;21.52;;;;;;;10.62;76.01;101316.94;4859338;29;20413;-75
2021/10/09 04:09:51;;;;;;;30.03;21.33;;;;;;;10.60;76.10;101312.81;4857902;29;20421;-75
2021/10/09 04:12:16;;;;;;;29.20;21.50;;;;;;;10.57;76.01;101314.06;4842855;29;20418;-75
2021/10/09 04:14:41;;;;;;;31.67;22.00;;;;;;;10.57;76.00;101310.53;4859266;29;20445;-75
2021/10/09 04:17:07;;;;;;;31.07;21.77;;;;;;;10.55;76.04;101309.91;4859290;29;20457;-75
2021/10/09 04:19:33;;;;;;;27.30;20.92;;;;;;;10.54;76.32;101311.78;4858097;29;20414;-75
2021/10/09 04:21:58;;;;;;;32.15;21.23;;;;;;;10.54;76.17;101317.22;4859108;29;20470;-75
2021/10/09 04:24:23;;;;;;;30.77;21.23;;;;;;;10.52;75.84;101310.38;4858921;29;20432;-75
2021/10/09 04:26:49;;;;;;;31.38;22.25;;;;;;;10.48;75.89;101311.84;4842613;29;20414;-75
2021/10/09 04:29:14;;;;;;;30.73;20.70;;;;;;;10.46;75.98;101324.81;4857653;29;20414;-75
2021/10/09 04:31:39;;;;;;;30.40;20.73;;;;;;;10.41;75.76;101325.47;4841506;29;20513;-75
2021/10/09 04:34:05;;;;;;;28.80;20.87;;;;;;;10.41;75.72;101322.75;4858684;29;20410;-75
2021/10/09 04:36:30;;;;;;;33.03;21.48;;;;;;;10.41;76.23;101318.16;4858856;29;20762;-75
2021/10/09 04:38:55;;;;;;;32.10;21.70;;;;;;;10.39;75.70;101319.47;4841941;29;20894;-75
2021/10/09 04:41:20;;;;;;;31.70;21.63;;;;;;;10.35;76.22;101312.81;4860345;29;20469;-75
2021/10/09 04:43:46;;;;;;;30.93;21.87;;;;;;;10.34;76.32;101319.31;4862450;29;20448;-75
2021/10/09 04:46:11;;;;;;;32.93;22.67;;;;;;;10.36;76.02;101322.63;4846142;29;20914;-74
2021/10/09 04:48:37;;;;;;;30.30;21.97;;;;;;;10.35;76.27;101319.06;4862758;29;20412;-75
2021/10/09 04:51:03;;;;;;;30.47;20.83;;;;;;;10.31;76.31;101317.00;4861125;29;20418;-75
2021/10/09 04:53:28;;;;;;;35.27;22.93;;;;;;;10.24;76.30;101317.06;4862340;29;20474;-75
2021/10/09 04:55:53;;;;;;;32.37;21.27;;;;;;;10.26;76.59;101319.56;4846012;29;20422;-75
2021/10/09 04:58:18;;;;;;;33.07;21.60;;;;;;;10.26;76.14;101327.69;4845979;29;20918;-75
2021/10/09 05:00:44;;;;;;;31.00;21.63;;;;;;;10.27;76.18;101323.94;4862600;29;20513;-75
2021/10/09 05:03:09;;;;;;;30.43;21.77;;;;;;;10.22;76.13;101327.31;4845242;29;20778;-75
2021/10/09 05:05:34;;;;;;;32.53;22.95;;;;;;;10.21;76.26;101330.22;4862255;29;20433;-75
2021/10/09 05:08:00;;;;;;;28.57;21.23;;;;;;;10.20;76.46;101332.13;4862431;29;20898;-75
2021/10/09 05:10:28;;;;;;;35.08;23.40;;;;;;;10.20;76.03;101329.44;4844771;29;20919;-75
2021/10/09 05:12:53;;;;;;;32.28;21.10;;;;;;;10.21;76.17;101328.34;4862177;29;20553;-75
2021/10/09 05:15:18;;;;;;;29.88;21.33;;;;;;;10.19;76.38;101325.06;4862369;29;20398;-75
2021/10/09 05:17:44;;;;;;;33.03;20.93;;;;;;;10.20;76.37;101323.19;4862265;29;20908;-75
2021/10/09 05:20:10;;;;;;;30.00;22.47;;;;;;;10.19;76.16;101325.06;4862055;29;20406;-75
2021/10/09 05:22:36;;;;;;;32.30;21.23;;;;;;;10.20;76.02;101334.00;4861618;29;20414;-75
2021/10/09 05:25:02;;;;;;;31.87;22.47;;;;;;;10.14;75.92;101335.69;4861930;29;20482;-75
2021/10/09 05:27:28;;;;;;;34.70;22.50;;;;;;;10.09;75.88;101335.50;4862066;29;20489;-75
2021/10/09 05:29:53;;;;;;;33.40;22.33;;;;;;;10.06;76.36;101332.41;4844711;29;20497;-75
2021/10/09 05:32:27;;;;;;;31.43;21.30;;;;;;;10.05;76.42;101334.28;4861847;29;20501;-75
2021/10/09 05:34:54;;;;;;;33.70;21.97;;;;;;;10.03;76.41;101335.56;4845220;29;20501;-75
2021/10/09 05:37:19;;;;;;;30.42;21.38;;;;;;;10.04;76.51;101334.53;4861852;29;20466;-75
2021/10/09 05:39:44;;;;;;;28.80;21.67;;;;;;;10.03;76.23;101332.84;4844855;29;20406;-74
2021/10/09 05:42:10;;;;;;;30.37;22.27;;;;;;;10.01;76.55;101334.97;4861972;29;20898;-75
2021/10/09 05:44:35;;;;;;;31.88;22.08;;;;;;;10.02;76.61;101342.84;4844358;29;20434;-74
2021/10/09 05:47:00;;;;;;;33.40;22.87;;;;;;;10.02;76.63;101336.59;4861814;29;20418;-75
2021/10/09 05:49:25;;;;;;;29.50;21.03;;;;;;;10.02;76.65;101342.03;4860615;29;20974;-75
2021/10/09 05:52:02;;;;;;;29.80;21.50;;;;;;;10.03;76.67;101349.09;4860979;29;20509;-75
2021/10/09 05:54:37;;;;;;;35.00;21.80;;;;;;;10.01;76.47;101351.22;4844760;29;20422;-75
2021/10/09 06:47:03;;;;;;;30.58;21.85;;;;;;;10.14;76.15;101384.47;4860534;29;20763;-75
2021/10/09 07:00:20;;;;;;;34.63;21.67;;;;;;;10.30;76.14;101402.06;4859530;29;20437;-75
2021/10/09 07:02:46;;;;;;;30.10;20.57;;;;;;;10.37;75.63;101394.72;4860445;29;20406;-77
2021/10/09 07:05:14;;;;;;;28.23;21.23;;;;;;;10.44;76.00;101386.53;4842647;29;20507;-75
2021/10/09 07:07:41;;;;;;;29.42;20.88;;;;;;;10.46;75.76;101393.41;4843178;29;20557;-74
2021/10/09 07:10:11;;;;;;;30.40;21.15;;;;;;;10.45;75.89;101394.44;4855576;29;20521;-75
2021/10/09 07:12:36;;;;;;;27.58;20.55;;;;;;;10.46;75.43;101395.28;4857385;29;20434;-75
2021/10/09 07:15:03;;;;;;;35.47;20.52;;;;;;;10.47;75.72;101397.78;4858402;29;20425;-75
2021/10/09 07:17:28;;;;;;;28.90;19.50;;;;;;;10.50;75.54;101396.50;4859824;29;20894;-75
2021/10/09 07:19:54;;;;;;;28.40;20.20;;;;;;;10.55;75.51;101400.19;4841283;29;20441;-76
2021/10/09 07:22:19;;;;;;;25.60;19.75;;;;;;;10.67;75.17;101400.31;4859894;29;20418;-75
2021/10/09 07:24:44;;;;;;;31.17;20.23;;;;;;;10.76;75.33;101402.50;4859980;29;20441;-75
2021/10/09 07:27:09;;;;;;;27.67;20.63;;;;;;;10.76;75.44;101409.81;4859803;29;20803;-75
2021/10/09 07:29:35;;;;;;;28.97;20.50;;;;;;;10.73;75.53;101410.25;4840759;29;20429;-75
2021/10/09 07:32:00;;;;;;;31.43;20.60;;;;;;;10.72;75.72;101408.59;4859237;29;20914;-75
2021/10/09 07:34:25;;;;;;;45.53;27.40;;;;;;;10.77;75.47;101408.72;4858382;29;20422;-75
2021/10/09 07:36:51;;;;;;;35.00;23.43;;;;;;;10.78;75.24;101410.41;4843331;29;20486;-75
2021/10/09 07:39:16;;;;;;;27.57;20.17;;;;;;;10.81;75.03;101410.78;4857778;29;20414;-75
2021/10/09 07:41:41;;;;;;;30.83;20.03;;;;;;;10.83;74.76;101410.56;4858465;29;20688;-75
2021/10/09 07:44:06;;;;;;;29.67;20.30;;;;;;;10.87;74.58;101409.06;4858923;29;20759;-75
2021/10/09 07:46:32;;;;;;;26.10;18.47;;;;;;;10.89;74.46;101407.81;4859779;29;20410;-76
2021/10/09 07:48:57;;;;;;;29.33;19.27;;;;;;;10.91;74.20;101407.56;4857190;29;20458;-76
2021/10/09 07:51:23;;;;;;;27.58;18.35;;;;;;;10.89;74.41;101409.69;4855862;29;20447;-75
2021/10/09 07:53:48;;;;;;;27.70;18.80;;;;;;;10.88;74.29;101405.31;4859073;29;20468;-75
2021/10/09 07:56:13;;;;;;;27.38;18.65;;;;;;;10.91;74.46;101411.09;4857496;29;20553;-76
2021/10/09 07:58:39;;;;;;;26.60;18.57;;;;;;;10.98;74.59;101411.03;4856951;29;20437;-75
2021/10/09 08:01:04;;;;;;;29.00;19.07;;;;;;;11.02;74.16;101414.13;4844486;29;20495;-74
2021/10/09 08:03:29;;;;;;;21.53;17.77;;;;;;;11.00;74.15;101417.06;4859111;29;20905;-75
2021/10/09 08:05:55;;;;;;;26.80;17.93;;;;;;;11.02;74.00;101414.13;4853921;29;20523;-75
2021/10/09 08:08:21;;;;;;;28.10;18.63;;;;;;;11.06;74.08;101415.34;4858760;29;20414;-75
2021/10/09 08:10:47;;;;;;;24.17;16.55;;;;;;;11.10;73.96;101416.56;4857944;29;20418;-75
2021/10/09 08:13:17;;;;;;;26.63;16.77;;;;;;;11.16;73.70;101412.94;4857592;29;20437;-76
2021/10/09 08:15:44;;;;;;;23.27;16.33;;;;;;;11.15;73.63;101414.00;4856211;29;20423;-75
2021/10/09 08:18:10;;;;;;;24.45;17.92;;;;;;;11.19;73.48;101416.03;4841256;29;20465;-76
2021/10/09 08:20:37;;;;;;;27.73;17.57;;;;;;;11.20;73.28;101420.41;4858002;29;20452;-75
2021/10/09 08:23:13;;;;;;;26.83;16.83;;;;;;;11.23;73.11;101419.94;4840885;29;20516;-76
2021/10/09 08:26:39;;;;;;;27.70;17.75;;;;;;;11.28;72.83;101419.28;4859266;29;20978;-76
2021/10/09 08:36:49;;;;;;;24.60;17.30;;;;;;;11.53;72.09;101416.47;4859063;29;20909;-76
2021/10/09 08:39:15;;;;;;;24.73;16.23;;;;;;;11.58;72.11;101425.59;4856224;29;20430;-75
2021/10/09 08:41:41;;;;;;;25.63;16.17;;;;;;;11.64;71.90;101421.13;4859058;29;20415;-76
2021/10/09 08:44:06;;;;;;;18.77;15.37;;;;;;;11.68;70.89;101419.63;4841521;29;20836;-75
2021/10/09 08:46:31;;;;;;;24.17;16.70;;;;;;;11.72;71.22;101421.66;4859237;29;20890;-75
2021/10/09 08:48:57;;;;;;;27.33;16.70;;;;;;;11.77;71.38;101410.13;4857533;29;20474;-75
2021/10/09 08:51:24;;;;;;;25.83;16.63;;;;;;;11.79;71.24;101419.69;4842219;29;20417;-76
2021/10/09 08:53:51;;;;;;;24.83;16.95;;;;;;;11.81;71.18;101417.59;4859109;29;20497;-75
2021/10/09 08:56:41;;;;;;;25.90;17.35;;;;;;;11.86;71.02;101422.31;4858499;29;20444;-76
2021/10/09 08:59:09;;;;;;;26.88;18.08;;;;;;;11.89;71.20;101422.69;4840536;29;20422;-76
2021/10/09 09:01:50;;;;;;;25.42;16.42;;;;;;;11.91;70.93;101426.03;4859081;29;20402;-75
2021/10/09 09:40:15;;;;;;;25.05;17.58;;;;;;;12.82;69.41;101413.91;4846167;29;20751;-76
2021/10/09 09:42:49;;;;;;;24.73;16.58;;;;;;;12.99;69.04;101406.69;4859374;29;20513;-76
2021/10/09 09:45:22;;;;;;;25.35;15.45;;;;;;;13.27;68.39;101414.16;4855127;29;20484;-75
2021/10/09 09:47:48;;;;;;;31.40;16.85;;;;;;;13.61;68.52;101418.69;4861751;29;20829;-75
2021/10/09 09:50:14;;;;;;;20.73;14.63;;;;;;;14.21;66.39;101412.75;4861504;29;20442;-75
2021/10/09 09:52:43;;;;;;;23.90;15.77;;;;;;;14.79;64.59;101409.63;4844136;29;20426;-75
2021/10/09 09:55:13;;;;;;;20.42;14.75;;;;;;;15.20;62.92;101411.91;4861609;29;20430;-76
2021/10/09 09:57:40;;;;;;;28.42;14.82;;;;;;;15.48;61.99;101411.75;4861191;29;20418;-75
2021/10/09 10:00:13;;;;;;;19.05;14.15;;;;;;;16.03;61.30;101408.00;4861193;29;20414;-76
2021/10/09 10:02:55;;;;;;;19.08;13.75;;;;;;;16.75;59.64;101404.84;4859690;29;20418;-75
2021/10/09 10:05:24;;;;;;;18.45;13.63;;;;;;;17.43;57.00;101415.66;4861386;29;20461;-76
2021/10/09 10:07:52;;;;;;;16.83;12.57;;;;;;;17.92;55.21;101413.38;4861772;29;20395;-76
2021/10/09 10:10:18;;;;;;;16.58;12.90;;;;;;;18.27;54.66;101409.06;4844852;29;20402;-75
2021/10/09 10:12:45;;;;;;;21.23;13.45;;;;;;;18.85;53.31;101405.78;4858968;29;20426;-76
2021/10/09 10:15:12;;;;;;;17.17;13.07;;;;;;;19.47;51.16;101401.81;4861284;29;20406;-76
2021/10/09 10:17:45;;;;;;;18.23;12.82;;;;;;;19.96;49.62;101394.41;4860683;29;20414;-76
2021/10/09 10:20:18;;;;;;;14.90;12.13;;;;;;;20.42;47.24;101405.13;4861013;29;20941;-76
2021/10/09 10:22:43;;;;;;;16.38;12.50;;;;;;;21.13;45.90;101400.63;4860192;29;20827;-76
2021/10/09 10:25:14;;;;;;;17.77;13.03;;;;;;;21.76;43.71;101399.59;4860809;29;20430;-75
2021/10/09 10:27:40;;;;;;;17.87;12.30;;;;;;;22.00;42.86;101406.72;4860821;29;20848;-76
2021/10/09 10:30:15;;;;;;;20.73;14.20;;;;;;;21.88;42.87;101400.78;4844514;29;20418;-75
2021/10/09 10:32:48;;;;;;;16.05;11.88;;;;;;;21.47;43.51;101405.22;4843319;29;20894;-76
2021/10/09 10:35:31;;;;;;;17.63;12.73;;;;;;;20.81;44.35;101400.38;4861146;29;20417;-75
2021/10/09 10:38:02;;;;;;;16.40;13.45;;;;;;;19.81;46.77;101396.44;4860586;29;20407;-75
2021/10/09 10:40:54;;;;;;;19.00;13.35;;;;;;;18.98;48.81;101404.41;4843575;29;20505;-75
2021/10/09 10:46:32;;;;;;;18.67;12.82;;;;;;;18.04;52.08;101405.75;4860468;29;20469;-75
2021/10/09 10:51:45;;;;;;;15.32;12.10;;;;;;;17.90;52.59;101409.28;4856726;29;20418;-76
2021/10/09 10:57:04;;;;;;;22.85;14.00;;;;;;;17.53;54.46;101412.13;4859236;29;20922;-76
2021/10/09 11:00:02;;;;;;;19.77;13.25;;;;;;;17.41;54.80;101403.31;4860283;29;20886;-76
2021/10/09 11:02:28;;;;;;;19.37;12.83;;;;;;;17.24;55.09;101398.03;4857322;29;20421;-76
2021/10/09 11:05:02;;;;;;;18.55;12.55;;;;;;;17.05;55.25;101397.66;4857630;29;20480;-76
2021/10/09 11:07:32;;;;;;;21.60;13.13;;;;;;;16.88;55.95;101398.91;4859153;29;20905;-75
2021/10/09 11:10:06;;;;;;;23.03;13.20;;;;;;;16.89;56.72;101395.09;4859387;29;20486;-76
2021/10/09 11:12:34;;;;;;;17.08;13.18;;;;;;;16.85;55.98;101396.69;4861277;29;20412;-75
2021/10/09 11:15:19;;;;;;;18.67;13.25;;;;;;;16.67;56.31;101395.19;4857922;29;20902;-75
2021/10/09 11:17:47;;;;;;;18.58;13.10;;;;;;;16.59;56.90;101395.69;4842473;29;20427;-75
2021/10/09 11:20:28;;;;;;;20.80;12.57;;;;;;;16.50;56.84;101389.00;4841832;29;20489;-76
2021/10/09 11:22:55;;;;;;;24.23;13.32;;;;;;;16.49;57.58;101384.63;4858046;29;20455;-76
2021/10/09 11:25:20;;;;;;;20.98;13.27;;;;;;;16.59;57.85;101380.09;4858955;29;20442;-75
2021/10/09 11:27:46;;;;;;;17.48;12.63;;;;;;;16.59;57.52;101382.84;4858116;29;20421;-75
2021/10/09 11:30:11;;;;;;;17.50;11.80;;;;;;;16.59;57.50;101379.28;4859221;29;20861;-75
2021/10/09 11:32:38;;;;;;;16.48;12.73;;;;;;;16.53;57.42;101378.34;4856553;29;20414;-75
2021/10/09 11:35:05;;;;;;;19.63;12.88;;;;;;;16.49;57.63;101382.72;4858082;29;20437;-75
2021/10/09 11:37:33;;;;;;;18.40;12.98;;;;;;;16.45;57.28;101383.50;4857363;29;20414;-76
2021/10/09 11:40:02;;;;;;;22.95;13.50;;;;;;;16.41;57.70;101376.88;4857301;29;20509;-75
2021/10/09 11:42:42;;;;;;;20.50;12.50;;;;;;;16.44;57.72;101371.72;4847778;29;20514;-75
2021/10/09 11:56:06;;;;;;;16.05;12.95;;;;;;;16.27;58.59;101370.22;4859606;29;20551;-75
2021/10/09 11:58:31;;;;;;;20.57;12.70;;;;;;;16.25;57.85;101369.66;4858544;29;20426;-75
2021/10/09 12:00:57;;;;;;;17.43;12.57;;;;;;;16.21;58.08;101368.50;4859245;29;20422;-75
2021/10/09 12:03:35;;;;;;;16.58;12.73;;;;;;;16.23;58.58;101358.97;4842564;29;20442;-75
2021/10/09 12:06:08;;;;;;;17.17;12.63;;;;;;;16.23;57.93;101367.19;4850961;29;20787;-75
2021/10/09 12:08:40;;;;;;;15.90;13.33;;;;;;;16.18;58.00;101369.03;4845103;29;20405;-75
2021/10/09 12:11:23;;;;;;;17.90;12.70;;;;;;;16.10;57.99;101367.63;4857117;29;20555;-75
2021/10/09 12:13:58;;;;;;;17.33;12.50;;;;;;;16.06;58.47;101359.09;4856802;29;20450;-75
2021/10/09 12:16:30;;;;;;;16.77;11.55;;;;;;;16.10;58.41;101353.94;4857363;29;20410;-75
2021/10/09 12:19:04;;;;;;;19.13;13.38;;;;;;;16.11;58.25;101358.31;4856543;29;20415;-75
2021/10/09 12:21:53;;;;;;;22.15;13.43;;;;;;;16.16;58.68;101357.53;4854250;29;20410;-75
2021/10/09 12:24:22;;;;;;;19.08;14.05;;;;;;;16.17;58.72;101351.78;4848688;29;20446;-75
2021/10/09 12:27:04;;;;;;;18.80;12.48;;;;;;;16.16;58.55;101354.81;4840685;29;20415;-75
2021/10/09 12:29:31;;;;;;;18.73;12.63;;;;;;;16.16;58.13;101354.81;4853716;29;20414;-76
2021/10/09 12:32:15;;;;;;;17.27;12.40;;;;;;;16.16;58.38;101354.81;4859341;29;20414;-74
2021/10/09 12:34:42;;;;;;;16.50;12.23;;;;;;;16.14;57.94;101356.97;4853662;29;20771;-74
2021/10/09 12:37:28;;;;;;;19.48;13.10;;;;;;;16.14;58.00;101351.47;4857729;29;20521;-74
2021/10/09 12:40:09;;;;;;;18.38;11.95;;;;;;;16.13;57.56;101349.84;4855160;29;20422;-76
2021/10/09 12:42:34;;;;;;;19.85;13.27;;;;;;;16.08;57.97;101353.34;4854973;29;20463;-75
2021/10/09 12:45:01;;;;;;;16.87;11.40;;;;;;;16.11;57.92;101344.63;4838674;29;21080;-75
2021/10/09 12:47:26;;;;;;;15.68;11.85;;;;;;;16.12;58.01;101345.47;4839324;29;20431;-74
2021/10/09 12:49:52;;;;;;;20.27;12.33;;;;;;;16.07;58.38;101336.13;4837115;29;20432;-75
2021/10/09 12:52:17;;;;;;;18.40;12.63;;;;;;;16.08;58.39;101345.16;4852003;29;20423;-76
2021/10/09 12:54:42;;;;;;;14.90;11.93;;;;;;;16.08;57.74;101345.16;4839607;29;20422;-77
2021/10/09 12:57:09;;;;;;;21.10;12.00;;;;;;;16.08;58.03;101335.06;4838071;29;20427;-76
2021/10/09 12:59:35;;;;;;;17.73;13.43;;;;;;;16.08;58.09;101334.22;4838244;29;20895;-74
2021/10/09 13:02:01;;;;;;;17.20;12.43;;;;;;;16.04;58.17;101333.91;4838459;29;20459;-73
2021/10/09 13:04:26;;;;;;;16.30;11.82;;;;;;;16.05;57.91;101338.31;4843238;29;20443;-76
2021/10/09 13:06:52;;;;;;;17.80;11.40;;;;;;;16.03;58.01;101335.00;4842689;29;20420;-73
2021/10/09 13:09:17;;;;;;;15.57;12.03;;;;;;;16.07;58.18;101330.66;4844085;29;20396;-76
2021/10/09 13:11:47;;;;;;;19.63;11.98;;;;;;;16.11;58.45;101328.22;4842556;29;20419;-74
2021/10/09 13:14:13;;;;;;;21.80;11.68;;;;;;;16.15;58.51;101325.81;4840337;29;20427;-73
2021/10/09 13:16:38;;;;;;;17.47;12.47;;;;;;;16.16;58.02;101330.19;4844410;29;20930;-74
2021/10/09 13:19:04;;;;;;;17.73;11.67;;;;;;;16.13;57.50;101319.78;4857078;29;20511;-73
2021/10/09 13:21:29;;;;;;;17.13;11.93;;;;;;;16.08;58.04;101324.13;4842582;29;20847;-75
2021/10/09 13:23:54;;;;;;;15.70;11.93;;;;;;;16.07;57.87;101327.91;4840711;29;20431;-73
2021/10/09 13:26:19;;;;;;;18.37;12.43;;;;;;;16.09;57.84;101322.22;4840267;29;20420;-74